CDT,Max TemperatureF,Mean TemperatureF,Min TemperatureF,Max Dew PointF,MeanDew PointF,Min DewpointF,Max Humidity, Mean Humidity, Min Humidity, Max Sea Level PressureIn, Mean Sea Level PressureIn, Min Sea Level PressureIn, Max VisibilityMiles, Mean VisibilityMiles, Min VisibilityMiles, Max Wind SpeedMPH, Mean Wind SpeedMPH, Max Gust SpeedMPH,PrecipitationIn, CloudCover, Events, WindDirDegrees
2013-5-1,59,46,33,46,37,34,100,91,55,30.42,30.28,29.92,10,7,3,23,16,34,0.89,7,Rain-Snow-Thunderstorm,360
2013-5-2,48,40,32,34,31,27,100,83,49,30.53,30.44,30.39,10,9,4,22,12,37,0.32,5,Rain-Snow,350
2013-5-3,45,39,33,36,30,27,87,67,55,30.36,30.19,30.04,10,10,10,18,11,26,0.00,5,,355
2013-5-4,45,40,35,43,38,32,100,94,79,30.17,30.04,29.97,10,10,5,17,13,29,0.03,8,Rain,349
2013-5-5,54,48,42,50,45,42,100,95,82,30.20,30.14,30.11,10,8,4,10,7,,0.03,8,Rain,343
2013-5-6,67,56,44,54,50,45,100,91,60,30.17,30.12,30.04,10,8,2,10,6,,0.00,5,,348
2013-5-7,74,56,39,59,48,39,100,83,46,30.11,30.04,29.96,10,8,5,12,2,,0.00,3,,111
2013-5-8,70,62,54,59,58,54,100,85,63,29.98,29.95,29.90,10,10,9,13,5,,0.01,5,Rain,122
2013-5-9,69,62,56,61,58,57,100,93,65,30.00,29.92,29.87,10,9,2,17,8,23,0.79,6,Rain-Thunderstorm,2
2013-5-10,69,59,46,53,49,46,99,77,44,30.11,30.05,30.01,10,10,10,15,9,23,0.00,4,,343
2013-5-11,61,50,37,50,31,22,100,46,25,30.28,30.21,30.04,10,10,5,24,10,32,0.00,0,,330
2013-5-12,64,48,32,36,29,22,88,53,26,30.32,30.24,30.13,10,10,10,7,2,,0.00,0,,1
2013-5-13,82,61,40,52,43,34,82,52,25,30.14,30.00,29.85,10,10,10,18,6,29,0.00,0,,174
2013-5-14,99,75,51,60,53,47,99,52,17,29.84,29.73,29.63,10,10,10,21,6,33,0.00,0,,202
2013-5-15,83,73,63,55,44,40,66,35,24,29.91,29.84,29.77,10,10,10,17,10,24,0.00,1,,69
2013-5-16,85,70,56,64,57,48,82,62,43,29.88,29.82,29.75,10,10,10,15,5,,0.00,2,,145
2013-5-17,84,73,62,63,61,58,96,67,43,29.89,29.85,29.81,10,10,10,14,6,17,0.00,2,,136
2013-5-18,85,74,61,67,63,59,98,65,45,29.89,29.81,29.69,10,10,10,22,10,26,0.00,2,,129
2013-5-19,78,69,60,68,63,56,100,88,66,29.83,29.65,29.47,10,8,1,28,12,37,0.59,5,Rain-Thunderstorm,145
2013-5-20,77,66,57,59,56,49,100,71,46,29.67,29.60,29.55,10,10,5,22,10,30,0.00,3,,213
2013-5-21,64,60,55,59,51,46,94,73,55,29.74,29.68,29.61,10,10,10,18,12,25,0.00,6,Rain,261
2013-5-22,61,56,52,56,51,48,97,82,67,29.99,29.82,29.73,10,10,8,17,13,24,0.00,7,Rain,297
2013-5-23,73,62,49,52,49,43,100,73,37,30.25,30.14,29.98,10,10,10,16,9,22,0.00,5,,14
2013-5-24,74,61,49,51,47,43,82,57,42,30.31,30.20,30.04,10,10,10,22,10,31,0.00,2,Rain-Thunderstorm,128
2013-5-25,82,69,58,70,60,45,100,82,49,30.12,30.04,29.96,10,9,2,20,12,26,0.34,6,Rain-Thunderstorm,106
2013-5-26,85,74,63,70,67,63,100,85,61,30.01,29.92,29.81,10,10,10,14,11,22,0.00,6,,102
2013-5-27,77,68,60,66,63,60,100,90,67,29.91,29.76,29.60,10,8,0,29,15,41,1.03,5,Fog-Rain-Thunderstorm,77
2013-5-28,80,71,62,66,64,63,100,90,58,29.73,29.68,29.64,10,9,3,12,4,,0.01,4,Rain-Thunderstorm,7
2013-5-29,75,69,63,72,66,60,100,91,73,29.71,29.64,29.55,10,9,0,21,11,29,1.19,5,Rain-Thunderstorm,137
2013-5-30,74,66,57,64,61,55,100,89,64,29.65,29.59,29.52,10,9,2,20,12,26,0.52,5,Rain-Thunderstorm,155
2013-5-31,78,66,53,57,52,47,100,61,33,29.72,29.66,29.62,10,10,9,17,7,22,0.00,1,,201